sensor_id;sensor_type;location;lat;lon;timestamp;pressure;altitude;pressure_sealevel;temperature;humidity
61436;BME280;47304;47.456;19.160;2023-11-21T00:00:27;99794.93;;;5.58;78.19
61436;BME280;47304;47.456;19.160;2023-11-21T00:02:56;99794.77;;;5.58;78.47
61436;BME280;47304;47.456;19.160;2023-11-21T00:05:24;99797.04;;;5.59;78.57
61436;BME280;47304;47.456;19.160;2023-11-21T00:07:53;99787.48;;;5.60;78.73
61436;BME280;47304;47.456;19.160;2023-11-21T00:10:21;99792.55;;;5.63;78.83
61436;BME280;47304;47.456;19.160;2023-11-21T00:12:50;99782.18;;;5.68;78.85
61436;BME280;47304;47.456;19.160;2023-11-21T00:15:18;99774.21;;;5.71;78.42
61436;BME280;47304;47.456;19.160;2023-11-21T00:17:47;99770.73;;;5.70;77.99
61436;BME280;47304;47.456;19.160;2023-11-21T00:20:15;99774.89;;;5.68;77.55
61436;BME280;47304;47.456;19.160;2023-11-21T00:22:44;99785.24;;;5.62;77.22
61436;BME280;47304;47.456;19.160;2023-11-21T00:25:12;99788.16;;;5.58;77.66
61436;BME280;47304;47.456;19.160;2023-11-21T00:27:41;99793.36;;;5.56;77.90
61436;BME280;47304;47.456;19.160;2023-11-21T00:30:11;99795.77;;;5.54;78.12
61436;BME280;47304;47.456;19.160;2023-11-21T00:32:40;99798.04;;;5.55;78.02
61436;BME280;47304;47.456;19.160;2023-11-21T00:35:09;99797.00;;;5.56;77.83
61436;BME280;47304;47.456;19.160;2023-11-21T00:37:38;99798.73;;;5.56;77.68
61436;BME280;47304;47.456;19.160;2023-11-21T00:40:08;99804.27;;;5.53;77.16
61436;BME280;47304;47.456;19.160;2023-11-21T00:42:36;99808.21;;;5.48;76.89
61436;BME280;47304;47.456;19.160;2023-11-21T00:45:06;99809.18;;;5.42;76.86
61436;BME280;47304;47.456;19.160;2023-11-21T00:47:35;99813.30;;;5.37;77.46
61436;BME280;47304;47.456;19.160;2023-11-21T00:50:05;99813.61;;;5.35;77.77
61436;BME280;47304;47.456;19.160;2023-11-21T00:52:33;99813.42;;;5.33;77.58
61436;BME280;47304;47.456;19.160;2023-11-21T00:55:02;99810.98;;;5.32;77.57
61436;BME280;47304;47.456;19.160;2023-11-21T00:57:30;99813.42;;;5.33;77.49
61436;BME280;47304;47.456;19.160;2023-11-21T00:59:59;99815.83;;;5.30;77.16
61436;BME280;47304;47.456;19.160;2023-11-21T01:02:27;99813.19;;;5.29;77.28
61436;BME280;47304;47.456;19.160;2023-11-21T01:04:56;99814.53;;;5.25;77.22
61436;BME280;47304;47.456;19.160;2023-11-21T01:07:24;99818.52;;;5.23;76.90
61436;BME280;47304;47.456;19.160;2023-11-21T01:09:52;99822.08;;;5.17;76.75
61436;BME280;47304;47.456;19.160;2023-11-21T01:12:21;99819.56;;;5.10;76.78
61436;BME280;47304;47.456;19.160;2023-11-21T01:14:50;99812.19;;;5.04;77.22
61436;BME280;47304;47.456;19.160;2023-11-21T01:17:18;99803.28;;;4.99;77.39
61436;BME280;47304;47.456;19.160;2023-11-21T01:19:46;99800.84;;;4.98;77.79
61436;BME280;47304;47.456;19.160;2023-11-21T01:22:15;99798.08;;;5.00;77.83
61436;BME280;47304;47.456;19.160;2023-11-21T01:24:44;99791.32;;;5.00;77.66
61436;BME280;47304;47.456;19.160;2023-11-21T01:27:12;99783.65;;;4.99;77.39
61436;BME280;47304;47.456;19.160;2023-11-21T01:29:41;99788.85;;;4.98;77.37
61436;BME280;47304;47.456;19.160;2023-11-21T01:32:09;99789.69;;;4.96;77.16
61436;BME280;47304;47.456;19.160;2023-11-21T01:34:38;99788.63;;;4.94;77.03
61436;BME280;47304;47.456;19.160;2023-11-21T01:37:06;99780.27;;;4.93;77.04
61436;BME280;47304;47.456;19.160;2023-11-21T01:39:35;99770.86;;;4.90;76.94
61436;BME280;47304;47.456;19.160;2023-11-21T01:42:04;99778.61;;;4.85;76.84
61436;BME280;47304;47.456;19.160;2023-11-21T01:44:32;99779.07;;;4.80;76.96
61436;BME280;47304;47.456;19.160;2023-11-21T01:47:00;99779.73;;;4.78;77.07
61436;BME280;47304;47.456;19.160;2023-11-21T01:49:29;99776.70;;;4.72;76.99
61436;BME280;47304;47.456;19.160;2023-11-21T01:51:58;99784.48;;;4.70;77.35
61436;BME280;47304;47.456;19.160;2023-11-21T01:54:26;99786.36;;;4.66;77.43
61436;BME280;47304;47.456;19.160;2023-11-21T01:56:55;99782.34;;;4.66;77.82
61436;BME280;47304;47.456;19.160;2023-11-21T01:59:24;99780.40;;;4.63;77.98
61436;BME280;47304;47.456;19.160;2023-11-21T02:01:53;99773.09;;;4.61;78.15
61436;BME280;47304;47.456;19.160;2023-11-21T02:04:22;99776.55;;;4.61;78.45
61436;BME280;47304;47.456;19.160;2023-11-21T02:06:51;99771.02;;;4.62;78.51
61436;BME280;47304;47.456;19.160;2023-11-21T02:09:25;99763.59;;;4.64;78.72
61436;BME280;47304;47.456;19.160;2023-11-21T02:11:54;99760.46;;;4.65;78.39
61436;BME280;47304;47.456;19.160;2023-11-21T02:14:22;99757.69;;;4.64;78.27
61436;BME280;47304;47.456;19.160;2023-11-21T02:16:51;99753.34;;;4.65;78.58
61436;BME280;47304;47.456;19.160;2023-11-21T02:19:21;99752.70;;;4.67;78.67
61436;BME280;47304;47.456;19.160;2023-11-21T02:21:51;99746.80;;;4.68;78.43
61436;BME280;47304;47.456;19.160;2023-11-21T02:24:20;99753.05;;;4.68;78.56
61436;BME280;47304;47.456;19.160;2023-11-21T02:26:49;99748.75;;;4.71;78.38
61436;BME280;47304;47.456;19.160;2023-11-21T02:29:18;99752.55;;;4.69;78.15
61436;BME280;47304;47.456;19.160;2023-11-21T02:31:47;99748.55;;;4.69;78.09
61436;BME280;47304;47.456;19.160;2023-11-21T02:34:15;99743.52;;;4.69;78.08
61436;BME280;47304;47.456;19.160;2023-11-21T02:36:44;99745.10;;;4.70;77.98
61436;BME280;47304;47.456;19.160;2023-11-21T02:39:13;99741.99;;;4.70;78.16
61436;BME280;47304;47.456;19.160;2023-11-21T02:41:42;99738.17;;;4.72;78.47
61436;BME280;47304;47.456;19.160;2023-11-21T02:44:11;99737.54;;;4.76;78.84
61436;BME280;47304;47.456;19.160;2023-11-21T02:46:39;99736.89;;;4.80;79.02
61436;BME280;47304;47.456;19.160;2023-11-21T02:49:07;99738.85;;;4.84;78.98
61436;BME280;47304;47.456;19.160;2023-11-21T02:51:36;99740.83;;;4.89;78.91
61436;BME280;47304;47.456;19.160;2023-11-21T02:54:05;99740.15;;;4.91;78.65
61436;BME280;47304;47.456;19.160;2023-11-21T02:56:34;99743.45;;;4.91;78.44
61436;BME280;47304;47.456;19.160;2023-11-21T02:59:02;99742.08;;;4.92;78.35
61436;BME280;47304;47.456;19.160;2023-11-21T03:01:31;99739.12;;;4.92;78.14
61436;BME280;47304;47.456;19.160;2023-11-21T03:04:00;99735.14;;;4.91;78.16
61436;BME280;47304;47.456;19.160;2023-11-21T03:06:28;99733.73;;;4.90;78.07
61436;BME280;47304;47.456;19.160;2023-11-21T03:08:57;99732.32;;;4.89;77.88
61436;BME280;47304;47.456;19.160;2023-11-21T03:11:25;99732.13;;;4.86;77.83
61436;BME280;47304;47.456;19.160;2023-11-21T03:13:54;99727.76;;;4.85;77.95
61436;BME280;47304;47.456;19.160;2023-11-21T03:16:22;99718.88;;;4.82;77.90
61436;BME280;47304;47.456;19.160;2023-11-21T03:18:51;99716.95;;;4.80;77.96
61436;BME280;47304;47.456;19.160;2023-11-21T03:21:19;99717.11;;;4.80;78.05
61436;BME280;47304;47.456;19.160;2023-11-21T03:23:47;99712.45;;;4.80;78.20
61436;BME280;47304;47.456;19.160;2023-11-21T03:26:16;99707.39;;;4.80;78.20
61436;BME280;47304;47.456;19.160;2023-11-21T03:28:45;99698.91;;;4.81;78.38
61436;BME280;47304;47.456;19.160;2023-11-21T03:31:13;99696.13;;;4.80;78.45
61436;BME280;47304;47.456;19.160;2023-11-21T03:33:42;99698.39;;;4.82;78.63
61436;BME280;47304;47.456;19.160;2023-11-21T03:36:11;99694.95;;;4.83;78.50
61436;BME280;47304;47.456;19.160;2023-11-21T03:38:39;99689.55;;;4.82;78.26
61436;BME280;47304;47.456;19.160;2023-11-21T03:41:08;99687.45;;;4.82;78.32
61436;BME280;47304;47.456;19.160;2023-11-21T03:43:37;99679.30;;;4.81;78.32
61436;BME280;47304;47.456;19.160;2023-11-21T03:46:06;99673.58;;;4.82;78.31
61436;BME280;47304;47.456;19.160;2023-11-21T03:48:34;99671.67;;;4.83;78.37
61436;BME280;47304;47.456;19.160;2023-11-21T03:51:02;99673.23;;;4.82;78.15
61436;BME280;47304;47.456;19.160;2023-11-21T03:53:31;99674.59;;;4.80;78.06
61436;BME280;47304;47.456;19.160;2023-11-21T03:55:59;99678.22;;;4.79;78.14
61436;BME280;47304;47.456;19.160;2023-11-21T03:58:30;99684.64;;;4.79;78.19
61436;BME280;47304;47.456;19.160;2023-11-21T04:00:59;99688.45;;;4.77;78.21
61436;BME280;47304;47.456;19.160;2023-11-21T04:03:28;99691.57;;;4.78;78.41
61436;BME280;47304;47.456;19.160;2023-11-21T04:05:56;99693.16;;;4.80;78.56
61436;BME280;47304;47.456;19.160;2023-11-21T04:08:24;99698.58;;;4.83;78.70
61436;BME280;47304;47.456;19.160;2023-11-21T04:10:53;99702.59;;;4.84;78.49
61436;BME280;47304;47.456;19.160;2023-11-21T04:13:21;99698.56;;;4.82;78.27
61436;BME280;47304;47.456;19.160;2023-11-21T04:15:50;99704.46;;;4.82;78.27
61436;BME280;47304;47.456;19.160;2023-11-21T04:18:19;99709.29;;;4.79;78.34
61436;BME280;47304;47.456;19.160;2023-11-21T04:20:48;99713.97;;;4.78;78.44
61436;BME280;47304;47.456;19.160;2023-11-21T04:23:16;99720.05;;;4.80;78.47
61436;BME280;47304;47.456;19.160;2023-11-21T04:25:45;99719.91;;;4.82;78.57
61436;BME280;47304;47.456;19.160;2023-11-21T04:28:13;99722.89;;;4.84;78.56
61436;BME280;47304;47.456;19.160;2023-11-21T04:30:41;99717.70;;;4.86;78.41
61436;BME280;47304;47.456;19.160;2023-11-21T04:33:10;99713.38;;;4.86;78.31
61436;BME280;47304;47.456;19.160;2023-11-21T04:35:38;99715.14;;;4.89;78.46
61436;BME280;47304;47.456;19.160;2023-11-21T04:38:07;99711.17;;;4.90;78.55
61436;BME280;47304;47.456;19.160;2023-11-21T04:40:35;99707.20;;;4.92;78.55
61436;BME280;47304;47.456;19.160;2023-11-21T04:43:03;99708.27;;;4.93;78.69
61436;BME280;47304;47.456;19.160;2023-11-21T04:45:32;99714.01;;;4.96;78.54
61436;BME280;47304;47.456;19.160;2023-11-21T04:48:01;99717.65;;;4.95;78.42
61436;BME280;47304;47.456;19.160;2023-11-21T04:50:29;99722.86;;;4.95;78.38
61436;BME280;47304;47.456;19.160;2023-11-21T04:52:58;99729.45;;;4.94;78.31
61436;BME280;47304;47.456;19.160;2023-11-21T04:55:26;99737.06;;;4.93;78.21
61436;BME280;47304;47.456;19.160;2023-11-21T04:57:55;99741.34;;;4.88;78.05
61436;BME280;47304;47.456;19.160;2023-11-21T05:00:24;99746.29;;;4.83;78.26
61436;BME280;47304;47.456;19.160;2023-11-21T05:02:53;99747.48;;;4.80;78.57
61436;BME280;47304;47.456;19.160;2023-11-21T05:05:22;99753.89;;;4.79;78.78
61436;BME280;47304;47.456;19.160;2023-11-21T05:07:50;99753.20;;;4.79;78.96
61436;BME280;47304;47.456;19.160;2023-11-21T05:10:19;99757.01;;;4.77;79.08
61436;BME280;47304;47.456;19.160;2023-11-21T05:12:47;99758.84;;;4.73;79.24
61436;BME280;47304;47.456;19.160;2023-11-21T05:15:16;99761.60;;;4.72;79.53
61436;BME280;47304;47.456;19.160;2023-11-21T05:17:45;99763.54;;;4.74;79.82
61436;BME280;47304;47.456;19.160;2023-11-21T05:20:15;99770.88;;;4.77;79.86
61436;BME280;47304;47.456;19.160;2023-11-21T05:22:43;99773.17;;;4.80;79.90
61436;BME280;47304;47.456;19.160;2023-11-21T05:25:12;99767.68;;;4.86;80.15
61436;BME280;47304;47.456;19.160;2023-11-21T05:27:40;99762.73;;;4.90;79.93
61436;BME280;47304;47.456;19.160;2023-11-21T05:30:10;99750.08;;;4.93;79.96
61436;BME280;47304;47.456;19.160;2023-11-21T05:32:39;99742.30;;;4.97;79.92
61436;BME280;47304;47.456;19.160;2023-11-21T05:35:08;99741.63;;;4.97;79.67
61436;BME280;47304;47.456;19.160;2023-11-21T05:37:37;99741.95;;;4.96;79.67
61436;BME280;47304;47.456;19.160;2023-11-21T05:40:07;99745.09;;;4.97;79.94
61436;BME280;47304;47.456;19.160;2023-11-21T05:42:37;99751.38;;;4.99;79.97
61436;BME280;47304;47.456;19.160;2023-11-21T05:45:06;99755.20;;;5.01;80.10
61436;BME280;47304;47.456;19.160;2023-11-21T05:47:35;99756.48;;;5.07;80.23
61436;BME280;47304;47.456;19.160;2023-11-21T05:50:05;99755.84;;;5.11;80.18
61436;BME280;47304;47.456;19.160;2023-11-21T05:52:35;99751.92;;;5.16;80.07
61436;BME280;47304;47.456;19.160;2023-11-21T05:55:03;99752.30;;;5.20;80.07
61436;BME280;47304;47.456;19.160;2023-11-21T05:57:32;99739.48;;;5.22;80.07
61436;BME280;47304;47.456;19.160;2023-11-21T06:00:00;99741.25;;;5.24;80.00
61436;BME280;47304;47.456;19.160;2023-11-21T06:02:29;99752.06;;;5.29;80.22
61436;BME280;47304;47.456;19.160;2023-11-21T06:04:57;99760.48;;;5.35;80.22
61436;BME280;47304;47.456;19.160;2023-11-21T06:07:26;99770.59;;;5.39;80.06
61436;BME280;47304;47.456;19.160;2023-11-21T06:09:54;99778.98;;;5.42;79.85
61436;BME280;47304;47.456;19.160;2023-11-21T06:12:23;99784.34;;;5.44;79.87
61436;BME280;47304;47.456;19.160;2023-11-21T06:14:51;99796.88;;;5.44;79.72
61436;BME280;47304;47.456;19.160;2023-11-21T06:17:20;99801.73;;;5.43;79.69
61436;BME280;47304;47.456;19.160;2023-11-21T06:19:48;99806.25;;;5.44;79.76
61436;BME280;47304;47.456;19.160;2023-11-21T06:22:17;99810.08;;;5.44;79.77
61436;BME280;47304;47.456;19.160;2023-11-21T06:24:45;99810.80;;;5.47;80.06
61436;BME280;47304;47.456;19.160;2023-11-21T06:27:14;99816.41;;;5.52;80.18
61436;BME280;47304;47.456;19.160;2023-11-21T06:29:42;99824.83;;;5.58;80.12
61436;BME280;47304;47.456;19.160;2023-11-21T06:32:11;99818.95;;;5.60;79.95
61436;BME280;47304;47.456;19.160;2023-11-21T06:34:40;99817.88;;;5.59;79.66
61436;BME280;47304;47.456;19.160;2023-11-21T06:37:08;99828.34;;;5.61;80.04
61436;BME280;47304;47.456;19.160;2023-11-21T06:39:37;99830.98;;;5.65;80.02
61436;BME280;47304;47.456;19.160;2023-11-21T06:42:06;99836.95;;;5.70;79.99
61436;BME280;47304;47.456;19.160;2023-11-21T06:44:35;99841.00;;;5.75;80.02
61436;BME280;47304;47.456;19.160;2023-11-21T06:47:04;99848.33;;;5.78;79.89
61436;BME280;47304;47.456;19.160;2023-11-21T06:49:32;99849.05;;;5.79;79.72
61436;BME280;47304;47.456;19.160;2023-11-21T06:52:01;99849.57;;;5.81;79.67
61436;BME280;47304;47.456;19.160;2023-11-21T06:54:30;99849.92;;;5.80;79.69
61436;BME280;47304;47.456;19.160;2023-11-21T06:56:59;99848.16;;;5.80;79.82
61436;BME280;47304;47.456;19.160;2023-11-21T06:59:27;99856.52;;;5.80;79.80
61436;BME280;47304;47.456;19.160;2023-11-21T07:01:56;99854.45;;;5.81;79.88
61436;BME280;47304;47.456;19.160;2023-11-21T07:04:25;99849.23;;;5.82;80.02
61436;BME280;47304;47.456;19.160;2023-11-21T07:06:54;99848.58;;;5.84;80.07
61436;BME280;47304;47.456;19.160;2023-11-21T07:09:23;99844.59;;;5.87;80.02
61436;BME280;47304;47.456;19.160;2023-11-21T07:11:51;99846.88;;;5.89;80.12
61436;BME280;47304;47.456;19.160;2023-11-21T07:14:20;99858.05;;;5.93;80.23
61436;BME280;47304;47.456;19.160;2023-11-21T07:16:49;99860.02;;;5.98;80.10
61436;BME280;47304;47.456;19.160;2023-11-21T07:19:17;99858.88;;;6.03;80.16
61436;BME280;47304;47.456;19.160;2023-11-21T07:21:46;99854.41;;;6.09;80.04
61436;BME280;47304;47.456;19.160;2023-11-21T07:24:15;99852.73;;;6.16;79.89
61436;BME280;47304;47.456;19.160;2023-11-21T07:26:43;99852.10;;;6.23;79.77
61436;BME280;47304;47.456;19.160;2023-11-21T07:29:12;99853.72;;;6.30;79.59
61436;BME280;47304;47.456;19.160;2023-11-21T07:31:40;99842.45;;;6.34;79.39
61436;BME280;47304;47.456;19.160;2023-11-21T07:34:08;99843.54;;;6.38;79.42
61436;BME280;47304;47.456;19.160;2023-11-21T07:36:37;99849.16;;;6.46;79.50
61436;BME280;47304;47.456;19.160;2023-11-21T07:39:05;99852.69;;;6.53;79.68
61436;BME280;47304;47.456;19.160;2023-11-21T07:41:33;99851.89;;;6.60;79.67
61436;BME280;47304;47.456;19.160;2023-11-21T07:44:02;99847.04;;;6.65;79.44
61436;BME280;47304;47.456;19.160;2023-11-21T07:46:30;99846.91;;;6.70;79.34
61436;BME280;47304;47.456;19.160;2023-11-21T07:48:59;99847.47;;;6.75;79.06
61436;BME280;47304;47.456;19.160;2023-11-21T07:51:27;99848.37;;;6.80;78.94
61436;BME280;47304;47.456;19.160;2023-11-21T07:53:56;99847.36;;;6.86;79.04
61436;BME280;47304;47.456;19.160;2023-11-21T07:56:25;99845.30;;;6.92;78.93
61436;BME280;47304;47.456;19.160;2023-11-21T07:58:53;99843.95;;;6.98;78.81
61436;BME280;47304;47.456;19.160;2023-11-21T08:01:22;99844.33;;;7.03;78.48
61436;BME280;47304;47.456;19.160;2023-11-21T08:03:51;99850.27;;;7.07;78.51
61436;BME280;47304;47.456;19.160;2023-11-21T08:06:20;99846.11;;;7.12;78.86
61436;BME280;47304;47.456;19.160;2023-11-21T08:08:48;99844.56;;;7.17;78.99
61436;BME280;47304;47.456;19.160;2023-11-21T08:11:16;99847.20;;;7.21;79.07
61436;BME280;47304;47.456;19.160;2023-11-21T08:13:45;99848.09;;;7.24;79.10
61436;BME280;47304;47.456;19.160;2023-11-21T08:16:13;99847.06;;;7.27;79.14
61436;BME280;47304;47.456;19.160;2023-11-21T08:18:42;99840.96;;;7.29;79.17
61436;BME280;47304;47.456;19.160;2023-11-21T08:21:11;99839.76;;;7.31;79.16
61436;BME280;47304;47.456;19.160;2023-11-21T08:23:40;99846.05;;;7.34;79.37
61436;BME280;47304;47.456;19.160;2023-11-21T08:26:09;99845.02;;;7.38;79.46
61436;BME280;47304;47.456;19.160;2023-11-21T08:28:37;99842.08;;;7.40;79.10
61436;BME280;47304;47.456;19.160;2023-11-21T08:31:06;99836.15;;;7.41;79.10
61436;BME280;47304;47.456;19.160;2023-11-21T08:33:34;99833.90;;;7.44;79.24
61436;BME280;47304;47.456;19.160;2023-11-21T08:36:08;99833.20;;;7.47;79.18
61436;BME280;47304;47.456;19.160;2023-11-21T08:38:37;99831.48;;;7.53;79.18
61436;BME280;47304;47.456;19.160;2023-11-21T08:41:06;99826.43;;;7.56;79.40
61436;BME280;47304;47.456;19.160;2023-11-21T08:43:36;99828.19;;;7.58;79.32
61436;BME280;47304;47.456;19.160;2023-11-21T08:46:04;99829.41;;;7.62;79.23
61436;BME280;47304;47.456;19.160;2023-11-21T08:48:34;99829.60;;;7.65;79.27
61436;BME280;47304;47.456;19.160;2023-11-21T08:51:03;99831.52;;;7.70;79.37
61436;BME280;47304;47.456;19.160;2023-11-21T08:53:31;99831.88;;;7.72;79.27
61436;BME280;47304;47.456;19.160;2023-11-21T08:56:00;99829.62;;;7.75;78.94
61436;BME280;47304;47.456;19.160;2023-11-21T08:58:29;99831.39;;;7.77;78.36
61436;BME280;47304;47.456;19.160;2023-11-21T09:00:58;99832.42;;;7.81;78.24
61436;BME280;47304;47.456;19.160;2023-11-21T09:03:27;99836.44;;;7.85;78.18
61436;BME280;47304;47.456;19.160;2023-11-21T09:05:55;99838.37;;;7.87;77.49
61436;BME280;47304;47.456;19.160;2023-11-21T09:08:24;99840.28;;;7.89;77.37
61436;BME280;47304;47.456;19.160;2023-11-21T09:10:53;99846.77;;;7.92;77.52
61436;BME280;47304;47.456;19.160;2023-11-21T09:13:21;99842.58;;;7.97;77.73
61436;BME280;47304;47.456;19.160;2023-11-21T09:15:50;99840.67;;;8.03;78.16
61436;BME280;47304;47.456;19.160;2023-11-21T09:18:18;99837.71;;;8.08;78.20
61436;BME280;47304;47.456;19.160;2023-11-21T09:20:47;99834.58;;;8.11;77.78
61436;BME280;47304;47.456;19.160;2023-11-21T09:23:16;99827.59;;;8.14;77.41
61436;BME280;47304;47.456;19.160;2023-11-21T09:25:44;99815.04;;;8.16;77.03
61436;BME280;47304;47.456;19.160;2023-11-21T09:28:13;99813.82;;;8.17;76.52
61436;BME280;47304;47.456;19.160;2023-11-21T09:30:42;99812.77;;;8.20;76.22
61436;BME280;47304;47.456;19.160;2023-11-21T09:33:10;99814.69;;;8.23;75.96
61436;BME280;47304;47.456;19.160;2023-11-21T09:35:39;99814.52;;;8.26;75.69
61436;BME280;47304;47.456;19.160;2023-11-21T09:38:08;99811.73;;;8.29;75.44
61436;BME280;47304;47.456;19.160;2023-11-21T09:40:37;99811.37;;;8.32;75.25
61436;BME280;47304;47.456;19.160;2023-11-21T09:43:08;99806.31;;;8.34;74.90
61436;BME280;47304;47.456;19.160;2023-11-21T09:45:40;99806.67;;;8.35;74.81
61436;BME280;47304;47.456;19.160;2023-11-21T09:48:10;99802.98;;;8.36;74.74
61436;BME280;47304;47.456;19.160;2023-11-21T09:50:39;99801.08;;;8.37;74.78
61436;BME280;47304;47.456;19.160;2023-11-21T09:53:16;99796.19;;;8.38;74.83
61436;BME280;47304;47.456;19.160;2023-11-21T09:55:46;99793.21;;;8.40;74.81
61436;BME280;47304;47.456;19.160;2023-11-21T09:58:15;99794.08;;;8.42;74.58
61436;BME280;47304;47.456;19.160;2023-11-21T10:00:45;99791.12;;;8.43;74.47
61436;BME280;47304;47.456;19.160;2023-11-21T10:03:15;99791.64;;;8.44;74.57
61436;BME280;47304;47.456;19.160;2023-11-21T10:05:45;99789.36;;;8.46;74.61
61436;BME280;47304;47.456;19.160;2023-11-21T10:08:14;99786.79;;;8.49;74.63
61436;BME280;47304;47.456;19.160;2023-11-21T10:10:45;99788.52;;;8.51;74.51
61436;BME280;47304;47.456;19.160;2023-11-21T10:13:15;99782.23;;;8.52;74.44
61436;BME280;47304;47.456;19.160;2023-11-21T10:15:51;99785.03;;;8.55;74.51
61436;BME280;47304;47.456;19.160;2023-11-21T10:18:20;99782.05;;;8.56;74.44
61436;BME280;47304;47.456;19.160;2023-11-21T10:20:48;99782.06;;;8.57;74.29
61436;BME280;47304;47.456;19.160;2023-11-21T10:23:17;99775.61;;;8.58;74.23
61436;BME280;47304;47.456;19.160;2023-11-21T10:25:46;99773.16;;;8.57;74.05
61436;BME280;47304;47.456;19.160;2023-11-21T10:28:14;99771.59;;;8.57;74.10
61436;BME280;47304;47.456;19.160;2023-11-21T10:30:43;99775.44;;;8.57;74.13
61436;BME280;47304;47.456;19.160;2023-11-21T10:33:12;99773.85;;;8.59;74.13
61436;BME280;47304;47.456;19.160;2023-11-21T10:35:47;99776.80;;;8.61;74.48
61436;BME280;47304;47.456;19.160;2023-11-21T10:38:16;99779.60;;;8.65;74.64
61436;BME280;47304;47.456;19.160;2023-11-21T10:40:45;99779.24;;;8.67;74.26
61436;BME280;47304;47.456;19.160;2023-11-21T10:43:13;99776.98;;;8.68;74.38
61436;BME280;47304;47.456;19.160;2023-11-21T10:45:42;99775.06;;;8.69;74.35
61436;BME280;47304;47.456;19.160;2023-11-21T10:48:12;99779.42;;;8.68;74.28
61436;BME280;47304;47.456;19.160;2023-11-21T10:50:41;99777.85;;;8.69;74.52
61436;BME280;47304;47.456;19.160;2023-11-21T10:53:11;99778.38;;;8.69;74.41
61436;BME280;47304;47.456;19.160;2023-11-21T10:55:39;99778.02;;;8.72;74.54
61436;BME280;47304;47.456;19.160;2023-11-21T10:58:08;99774.52;;;8.73;74.41
61436;BME280;47304;47.456;19.160;2023-11-21T11:00:40;99783.08;;;8.76;74.44
61436;BME280;47304;47.456;19.160;2023-11-21T11:03:08;99783.23;;;8.79;74.38
61436;BME280;47304;47.456;19.160;2023-11-21T11:05:37;99779.92;;;8.79;74.17
61436;BME280;47304;47.456;19.160;2023-11-21T11:08:07;99779.21;;;8.80;74.08
61436;BME280;47304;47.456;19.160;2023-11-21T11:10:37;99774.67;;;8.81;74.05
61436;BME280;47304;47.456;19.160;2023-11-21T11:13:06;99769.95;;;8.80;74.00
61436;BME280;47304;47.456;19.160;2023-11-21T11:15:35;99765.77;;;8.79;73.87
61436;BME280;47304;47.456;19.160;2023-11-21T11:18:04;99765.08;;;8.76;73.94
61436;BME280;47304;47.456;19.160;2023-11-21T11:20:34;99763.69;;;8.75;74.13
61436;BME280;47304;47.456;19.160;2023-11-21T11:23:39;99765.08;;;8.77;74.02
61436;BME280;47304;47.456;19.160;2023-11-21T11:26:20;99766.45;;;8.79;74.11
61436;BME280;47304;47.456;19.160;2023-11-21T11:29:00;99762.79;;;8.83;74.06
61436;BME280;47304;47.456;19.160;2023-11-21T11:31:39;99755.98;;;8.85;74.01
61436;BME280;47304;47.456;19.160;2023-11-21T11:34:19;99755.63;;;8.87;73.99
61436;BME280;47304;47.456;19.160;2023-11-21T11:36:59;99755.95;;;8.89;73.85
61436;BME280;47304;47.456;19.160;2023-11-21T11:39:35;99754.39;;;8.88;73.81
61436;BME280;47304;47.456;19.160;2023-11-21T11:42:05;99750.39;;;8.85;73.69
61436;BME280;47304;47.456;19.160;2023-11-21T11:44:51;99750.21;;;8.82;73.91
61436;BME280;47304;47.456;19.160;2023-11-21T11:47:22;99747.08;;;8.80;73.93
61436;BME280;47304;47.456;19.160;2023-11-21T11:50:02;99743.25;;;8.78;74.17
61436;BME280;47304;47.456;19.160;2023-11-21T11:52:38;99740.98;;;8.79;74.22
61436;BME280;47304;47.456;19.160;2023-11-21T11:55:09;99740.96;;;8.79;74.33
61436;BME280;47304;47.456;19.160;2023-11-21T11:57:38;99736.06;;;8.81;74.64
61436;BME280;47304;47.456;19.160;2023-11-21T12:00:15;99740.08;;;8.85;74.51
61436;BME280;47304;47.456;19.160;2023-11-21T12:02:46;99738.66;;;8.89;74.36
61436;BME280;47304;47.456;19.160;2023-11-21T12:05:16;99729.05;;;8.94;74.43
61436;BME280;47304;47.456;19.160;2023-11-21T12:07:46;99728.67;;;8.99;74.26
61436;BME280;47304;47.456;19.160;2023-11-21T12:10:16;99728.64;;;9.03;74.19
61436;BME280;47304;47.456;19.160;2023-11-21T12:12:46;99721.64;;;9.07;74.16
61436;BME280;47304;47.456;19.160;2023-11-21T12:15:15;99720.74;;;9.11;73.91
61436;BME280;47304;47.456;19.160;2023-11-21T12:17:44;99723.70;;;9.15;73.87
61436;BME280;47304;47.456;19.160;2023-11-21T12:20:13;99729.45;;;9.20;73.67
61436;BME280;47304;47.456;19.160;2023-11-21T12:22:43;99720.86;;;9.25;73.65
61436;BME280;47304;47.456;19.160;2023-11-21T12:25:11;99724.50;;;9.31;73.63
61436;BME280;47304;47.456;19.160;2023-11-21T12:27:40;99721.51;;;9.37;73.49
61436;BME280;47304;47.456;19.160;2023-11-21T12:30:10;99721.80;;;9.43;73.13
61436;BME280;47304;47.456;19.160;2023-11-21T12:32:38;99720.20;;;9.48;72.96
61436;BME280;47304;47.456;19.160;2023-11-21T12:35:08;99712.13;;;9.51;72.47
61436;BME280;47304;47.456;19.160;2023-11-21T12:37:37;99709.52;;;9.50;72.26
61436;BME280;47304;47.456;19.160;2023-11-21T12:40:07;99709.69;;;9.51;72.29
61436;BME280;47304;47.456;19.160;2023-11-21T12:42:36;99711.27;;;9.54;72.31
61436;BME280;47304;47.456;19.160;2023-11-21T12:45:20;99707.23;;;9.55;72.41
61436;BME280;47304;47.456;19.160;2023-11-21T12:47:49;99710.01;;;9.56;71.93
61436;BME280;47304;47.456;19.160;2023-11-21T12:50:20;99708.44;;;9.56;71.93
61436;BME280;47304;47.456;19.160;2023-11-21T12:52:49;99713.15;;;9.57;71.66
61436;BME280;47304;47.456;19.160;2023-11-21T12:55:19;99712.79;;;9.58;71.68
61436;BME280;47304;47.456;19.160;2023-11-21T12:57:52;99714.35;;;9.61;71.78
61436;BME280;47304;47.456;19.160;2023-11-21T13:00:27;99716.79;;;9.62;71.59
61436;BME280;47304;47.456;19.160;2023-11-21T13:02:56;99714.34;;;9.62;71.53
61436;BME280;47304;47.456;19.160;2023-11-21T13:05:30;99715.75;;;9.61;71.61
61436;BME280;47304;47.456;19.160;2023-11-21T13:08:00;99713.82;;;9.61;71.60
61436;BME280;47304;47.456;19.160;2023-11-21T13:10:31;99709.80;;;9.59;71.62